createdAt,value
2022-09-05T00:03:49.953Z,100.00
2022-09-05T00:08:52.960Z,100.00
2022-09-05T00:13:55.765Z,100.00
2022-09-05T00:21:17.721Z,100.00
2022-09-05T00:24:45.764Z,100.00
2022-09-05T00:31:05.458Z,100.00
2022-09-05T00:35:08.901Z,100.00
2022-09-05T00:40:17.719Z,100.00
2022-09-05T00:45:25.131Z,100.00
2022-09-05T00:50:27.885Z,100.00
2022-09-05T00:55:30.880Z,100.00
2022-09-05T01:00:33.628Z,100.00
2022-09-05T01:05:36.339Z,100.00
2022-09-05T01:10:39.106Z,100.00
2022-09-05T01:15:41.836Z,100.00
2022-09-05T01:20:44.589Z,100.00
2022-09-05T01:25:54.898Z,100.00
2022-09-05T01:30:58.232Z,100.00
2022-09-05T01:36:04.203Z,100.00
2022-09-05T01:41:18.954Z,100.00
2022-09-05T01:46:22.333Z,100.00
2022-09-05T01:51:29.368Z,100.00
2022-09-05T01:56:34.409Z,100.00
2022-09-05T02:01:37.680Z,100.00
2022-09-05T02:06:40.391Z,100.00
2022-09-05T02:11:43.164Z,100.00
2022-09-05T02:16:45.881Z,100.00
2022-09-05T02:21:55.740Z,100.00
2022-09-05T02:27:00.881Z,100.00
2022-09-05T02:32:03.650Z,100.00
2022-09-05T02:37:06.398Z,100.00
2022-09-05T02:45:14.076Z,100.00
2022-09-05T02:47:37.237Z,100.00
2022-09-05T02:57:30.418Z,100.00
2022-09-05T02:58:05.673Z,100.00
2022-09-05T03:03:11.906Z,100.00
2022-09-05T03:08:14.782Z,100.00
2022-09-05T03:13:17.677Z,100.00
2022-09-05T03:18:21.621Z,100.00
2022-09-05T03:23:25.776Z,100.00
2022-09-05T03:28:35.995Z,100.00
2022-09-05T03:33:38.797Z,100.00
2022-09-05T03:38:41.643Z,100.00
2022-09-05T03:43:49.996Z,100.00
2022-09-05T03:48:52.691Z,100.00
2022-09-05T03:57:19.611Z,100.00
2022-09-05T03:59:19.317Z,100.00
2022-09-05T04:08:27.805Z,100.00
2022-09-05T04:09:53.278Z,100.00
2022-09-05T04:14:58.860Z,100.00
2022-09-05T04:20:01.930Z,100.00
2022-09-05T04:25:04.690Z,100.00
2022-09-05T04:30:31.200Z,100.00
2022-09-05T04:35:30.864Z,100.00
2022-09-05T04:40:33.709Z,100.00
2022-09-05T04:45:36.893Z,100.00
2022-09-05T04:50:39.778Z,100.00
2022-09-05T04:55:46.704Z,100.00
2022-09-05T05:05:16.563Z,100.00
2022-09-05T05:17:28.462Z,100.00
2022-09-05T05:18:13.920Z,100.00
2022-09-05T05:22:30.042Z,100.00
2022-09-05T05:27:32.795Z,100.00
2022-09-05T05:32:45.651Z,100.00
2022-09-05T05:37:49.070Z,100.00
2022-09-05T05:42:53.761Z,100.00
2022-09-05T05:47:56.560Z,100.00
2022-09-05T05:52:59.354Z,100.00
2022-09-05T05:58:02.182Z,100.00
2022-09-05T06:03:13.604Z,100.00
2022-09-05T06:11:18.113Z,100.00
2022-09-05T06:14:57.996Z,100.00
2022-09-05T06:19:15.931Z,100.00
2022-09-05T06:24:21.399Z,100.00
2022-09-05T06:29:24.990Z,100.00
2022-09-05T06:34:38.104Z,100.00
2022-09-05T06:39:41.044Z,100.00
2022-09-05T06:44:49.415Z,100.00
2022-09-05T06:49:54.979Z,100.00
2022-09-05T06:54:59.978Z,100.00
2022-09-05T07:00:04.402Z,100.00
2022-09-05T07:05:37.674Z,100.00
2022-09-05T07:10:45.452Z,100.00
2022-09-05T07:15:48.334Z,100.00
2022-09-05T07:21:16.739Z,100.00
2022-09-05T07:26:35.033Z,100.00
2022-09-05T07:31:38.210Z,100.00
2022-09-05T07:36:41.257Z,100.00
2022-09-05T07:41:46.265Z,98.72
2022-09-05T07:46:49.255Z,95.18
2022-09-05T07:56:49.195Z,91.62
2022-09-05T07:57:30.738Z,87.23
2022-09-05T08:02:35.654Z,84.97
2022-09-05T08:07:48.272Z,84.58
2022-09-05T08:13:24.048Z,84.24
2022-09-05T08:18:17.846Z,82.75
2022-09-05T08:23:20.659Z,83.67
2022-09-05T08:28:24.319Z,84.02
2022-09-05T08:33:32.348Z,83.84
2022-09-05T08:38:40.486Z,83.05
2022-09-05T08:46:35.547Z,84.94
2022-09-05T08:49:16.269Z,81.73
2022-09-05T08:54:28.299Z,77.84
2022-09-05T08:59:32.801Z,76.61
2022-09-05T09:05:01.009Z,74.80
2022-09-05T09:10:00.427Z,75.75
2022-09-05T09:15:03.307Z,72.11
2022-09-05T09:20:09.655Z,69.42
2022-09-05T09:25:15.814Z,67.75
2022-09-05T09:30:19.416Z,66.93
2022-09-05T09:35:22.317Z,66.31
2022-09-05T09:40:25.633Z,64.64
2022-09-05T09:45:29.589Z,64.65
2022-09-05T09:50:32.569Z,66.97
2022-09-05T09:55:40.968Z,66.62
2022-09-05T10:00:43.808Z,67.71
2022-09-05T10:10:38.272Z,66.38
2022-09-05T10:11:51.449Z,65.55
2022-09-05T10:16:32.495Z,65.27
2022-09-05T10:21:35.268Z,65.43
2022-09-05T10:26:38.523Z,64.92
2022-09-05T10:33:09.103Z,65.50
2022-09-05T10:37:05.400Z,65.94
2022-09-05T10:42:08.930Z,64.90
2022-09-05T10:47:11.875Z,65.01
2022-09-05T10:52:18.881Z,63.33
2022-09-05T10:57:22.644Z,61.60
2022-09-05T11:02:34.653Z,64.30
2022-09-05T11:07:41.873Z,60.01
2022-09-05T11:12:46.115Z,64.29
2022-09-05T11:17:53.392Z,65.18
2022-09-05T11:22:56.222Z,64.92
2022-09-05T11:27:59.125Z,63.84
2022-09-05T11:37:48.658Z,62.92
2022-09-05T11:40:02.338Z,63.12
2022-09-05T11:43:47.791Z,63.41
2022-09-05T11:48:53.545Z,65.32
2022-09-05T11:53:57.483Z,63.95
2022-09-05T11:59:05.137Z,61.84
2022-09-05T12:04:10.013Z,60.25
2022-09-05T12:09:20.259Z,60.24
2022-09-05T12:14:26.428Z,59.00
2022-09-05T12:19:29.251Z,59.24
2022-09-05T12:25:25.840Z,55.55
2022-09-05T12:30:00.273Z,55.05
2022-09-05T12:36:10.818Z,53.53
2022-09-05T12:41:39.048Z,53.69
2022-09-05T12:45:50.090Z,52.99
2022-09-05T12:50:55.469Z,53.70
2022-09-05T12:57:31.856Z,51.81
2022-09-05T13:03:04.488Z,52.77
2022-09-05T13:06:46.058Z,53.53
2022-09-05T13:14:47.955Z,52.69
2022-09-05T13:17:14.047Z,53.34
2022-09-05T13:22:19.492Z,51.73
2022-09-05T13:27:33.025Z,50.98
2022-09-05T13:38:00.082Z,50.95
2022-09-05T13:38:35.779Z,49.23
2022-09-05T13:43:27.110Z,48.71
2022-09-05T13:48:30.122Z,50.49
2022-09-05T13:53:36.838Z,51.11
2022-09-05T13:58:42.927Z,49.21
2022-09-05T14:03:55.689Z,48.07
2022-09-05T14:20:08.902Z,46.26
2022-09-05T14:25:11.741Z,47.46
2022-09-05T14:33:13.798Z,46.85
2022-09-05T14:37:43.462Z,43.07
2022-09-05T14:41:02.752Z,42.52
2022-09-05T14:46:05.876Z,40.49
2022-09-05T14:51:08.829Z,40.36
2022-09-05T14:57:23.585Z,39.51
2022-09-05T15:02:57.548Z,39.52
2022-09-05T15:06:58.462Z,41.11
2022-09-05T15:12:25.938Z,41.47
2022-09-05T15:17:23.937Z,42.73
2022-09-05T15:22:27.358Z,43.17
2022-09-05T15:27:30.688Z,43.22
2022-09-05T15:32:37.974Z,43.80
2022-09-05T15:37:40.912Z,46.87
2022-09-05T15:42:43.763Z,46.17
2022-09-05T15:47:47.389Z,47.65
2022-09-05T15:52:55.441Z,48.11
2022-09-05T15:57:59.127Z,48.17
2022-09-05T16:03:36.495Z,49.31
2022-09-05T16:10:41.915Z,49.66
2022-09-05T16:13:53.362Z,49.91
2022-09-05T16:23:17.725Z,51.12
2022-09-05T16:24:24.845Z,52.60
2022-09-05T16:29:43.524Z,53.70
2022-09-05T16:34:46.269Z,53.50
2022-09-05T16:39:49.458Z,53.21
2022-09-05T16:44:52.306Z,53.41
2022-09-05T16:49:57.311Z,54.20
2022-09-05T16:55:03.001Z,54.84
2022-09-05T17:00:05.770Z,56.07
2022-09-05T17:05:08.745Z,57.88
2022-09-05T17:10:11.572Z,59.20
2022-09-05T17:15:14.395Z,60.68
2022-09-05T17:20:17.118Z,61.64
2022-09-05T17:29:47.236Z,63.38
2022-09-05T17:36:06.611Z,66.60
2022-09-05T17:41:09.489Z,68.07
2022-09-05T17:46:12.277Z,69.99
2022-09-05T17:51:16.637Z,72.30
2022-09-05T17:56:22.699Z,74.33
2022-09-05T18:01:28.862Z,77.14
2022-09-05T18:06:31.844Z,79.43
2022-09-05T18:11:36.304Z,80.10
2022-09-05T18:17:35.203Z,81.23
2022-09-05T18:22:06.611Z,82.66
2022-09-05T18:27:15.054Z,83.46
2022-09-05T18:32:32.354Z,85.28
2022-09-05T18:37:35.612Z,86.31
2022-09-05T18:42:38.496Z,87.71
2022-09-05T18:47:52.866Z,87.86
2022-09-05T18:53:08.640Z,89.34
2022-09-05T18:58:12.644Z,90.01
2022-09-05T19:03:15.753Z,92.47
2022-09-05T19:08:28.917Z,94.17
2022-09-05T19:13:32.461Z,94.49
2022-09-05T19:18:35.221Z,96.94
2022-09-05T19:23:38.018Z,97.44
2022-09-05T19:36:48.994Z,98.72
2022-09-05T19:37:06.615Z,100.00
2022-09-05T19:41:36.806Z,99.47
2022-09-05T19:47:36.578Z,100.00
2022-09-05T19:50:12.477Z,100.00
2022-09-05T19:55:15.289Z,100.00
2022-09-05T20:00:21.167Z,100.00
2022-09-05T20:05:26.286Z,100.00
2022-09-05T20:10:29.164Z,100.00
2022-09-05T20:15:36.256Z,100.00
2022-09-05T20:20:39.494Z,100.00
2022-09-05T20:25:47.345Z,100.00
2022-09-05T20:30:50.177Z,100.00
2022-09-05T20:37:54.521Z,100.00
2022-09-05T20:43:14.803Z,100.00
2022-09-05T20:49:53.938Z,100.00
2022-09-05T20:54:17.369Z,100.00
2022-09-05T20:57:25.993Z,100.00
2022-09-05T21:02:33.012Z,100.00
2022-09-05T21:07:37.333Z,100.00
2022-09-05T21:12:40.115Z,100.00
2022-09-05T21:17:43.370Z,100.00
2022-09-05T21:22:46.345Z,100.00
2022-09-05T21:27:51.322Z,100.00
2022-09-05T21:32:54.052Z,100.00
2022-09-05T21:37:57.127Z,100.00
2022-09-05T21:47:21.663Z,100.00
2022-09-05T21:48:22.976Z,100.00
2022-09-05T21:56:54.610Z,100.00
2022-09-05T21:59:30.190Z,100.00
2022-09-05T22:04:15.290Z,100.00
2022-09-05T22:09:18.065Z,100.00
2022-09-05T22:14:20.818Z,100.00
2022-09-05T22:19:26.246Z,100.00
2022-09-05T22:24:40.406Z,100.00
2022-09-05T22:29:47.346Z,100.00
2022-09-05T22:34:53.438Z,100.00
2022-09-05T22:39:56.225Z,100.00
2022-09-05T22:44:59.059Z,100.00
2022-09-05T22:50:01.802Z,100.00
2022-09-05T22:55:04.559Z,100.00
2022-09-05T23:00:07.511Z,100.00
2022-09-05T23:05:10.630Z,100.00
2022-09-05T23:10:13.478Z,100.00
2022-09-05T23:15:16.226Z,100.00
2022-09-05T23:20:19.014Z,100.00
2022-09-05T23:25:22.263Z,100.00
2022-09-05T23:30:29.828Z,100.00
2022-09-05T23:35:32.570Z,100.00
2022-09-05T23:40:35.400Z,100.00
2022-09-05T23:45:38.100Z,100.00
2022-09-05T23:50:40.815Z,100.00
2022-09-05T23:55:43.902Z,100.00
